Time;durP1;ratioP1;P1;durP2;ratioP2;P2;SDS_P1;SDS_P2;PMS_P1;PMS_P2;Temp;Humidity;BMP_temperature;BMP_pressure;BME280_temperature;BME280_humidity;BME280_pressure;Samples;Min_cycle;Max_cycle;Signal;HPM_P1;HPM_P2
2022/04/04 00:01:35;;;;;;;0.70;0.40;;;19.70;43.30;;;;;;6195705;28;20027;-65
2022/04/04 00:04:35;;;;;;;0.68;0.30;;;19.80;43.40;;;;;;6195177;28;20057;-65
2022/04/04 00:07:36;;;;;;;0.50;0.40;;;19.70;43.30;;;;;;6195779;28;20405;-65
2022/04/04 00:10:36;;;;;;;0.95;0.52;;;19.70;43.30;;;;;;6195321;28;20085;-65
2022/04/04 00:13:37;;;;;;;1.05;0.32;;;19.70;43.30;;;;;;6195183;28;20113;-65
2022/04/04 00:16:37;;;;;;;0.88;0.50;;;19.70;43.30;;;;;;6195523;28;20311;-65
2022/04/04 00:19:39;;;;;;;0.60;0.50;;;19.70;43.30;;;;;;6194962;28;20401;-65
2022/04/04 00:22:41;;;;;;;1.23;0.40;;;19.70;43.30;;;;;;6194638;28;20367;-65
2022/04/04 00:25:46;;;;;;;0.55;0.40;;;19.70;43.30;;;;;;6194524;28;20026;-65
2022/04/04 00:28:49;;;;;;;0.93;0.57;;;19.70;43.30;;;;;;6194627;28;20050;-65
2022/04/04 00:31:50;;;;;;;1.92;0.30;;;19.70;43.30;;;;;;6194131;28;20046;-65
2022/04/04 00:34:51;;;;;;;0.77;0.30;;;19.70;43.40;;;;;;6194514;28;20030;-65
2022/04/04 00:37:54;;;;;;;0.50;0.40;;;19.70;43.40;;;;;;6194763;28;20428;-64
2022/04/04 00:40:55;;;;;;;0.65;0.40;;;19.70;43.30;;;;;;6194717;28;20057;-65
2022/04/04 00:43:55;;;;;;;0.35;0.30;;;19.70;43.30;;;;;;6193952;28;20022;-65
2022/04/04 00:46:57;;;;;;;0.60;0.40;;;19.70;43.30;;;;;;6195239;28;20371;-65
2022/04/04 00:49:58;;;;;;;0.52;0.35;;;19.70;43.30;;;;;;6194278;28;20390;-65
2022/04/04 00:53:00;;;;;;;0.55;0.32;;;19.70;43.30;;;;;;6194122;28;20041;-65
2022/04/04 00:56:02;;;;;;;0.70;0.40;;;19.70;43.30;;;;;;6194322;28;20030;-65
2022/04/04 00:59:05;;;;;;;0.45;0.38;;;19.70;44.00;;;;;;6194357;28;20035;-64
2022/04/04 01:02:05;;;;;;;0.43;0.32;;;19.70;43.30;;;;;;6194085;28;20034;-65
2022/04/04 01:05:07;;;;;;;0.47;0.40;;;19.70;43.40;;;;;;6194138;28;20060;-65
2022/04/04 01:08:07;;;;;;;1.02;0.43;;;19.70;44.00;;;;;;6193801;28;20069;-65
2022/04/04 01:11:08;;;;;;;0.47;0.40;;;19.70;43.30;;;;;;6193900;28;20058;-65
2022/04/04 01:14:08;;;;;;;0.50;0.40;;;19.70;43.30;;;;;;6193536;28;20099;-65
2022/04/04 01:17:09;;;;;;;0.20;0.20;;;19.70;43.30;;;;;;6194108;28;20034;-65
2022/04/04 01:20:10;;;;;;;0.40;0.30;;;19.70;43.30;;;;;;6194143;28;20052;-65
2022/04/04 01:23:13;;;;;;;0.20;0.20;;;19.70;43.30;;;;;;6194044;28;20389;-64
2022/04/04 01:26:13;;;;;;;0.63;0.40;;;19.70;43.30;;;;;;6193222;28;20343;-65
2022/04/04 01:29:14;;;;;;;1.20;0.40;;;19.70;43.30;;;;;;6193699;28;20058;-65
2022/04/04 01:32:14;;;;;;;0.73;0.40;;;19.70;43.30;;;;;;6193135;28;20479;-65
2022/04/04 01:35:17;;;;;;;0.52;0.30;;;19.70;43.30;;;;;;6193887;28;20022;-65
2022/04/04 01:38:17;;;;;;;0.90;0.28;;;19.70;43.30;;;;;;6194190;28;20029;-64
2022/04/04 01:41:18;;;;;;;0.38;0.30;;;19.70;43.20;;;;;;6198958;28;20498;-65
2022/04/04 01:44:18;;;;;;;0.40;0.30;;;19.70;43.30;;;;;;6198421;28;20375;-65
2022/04/04 01:47:19;;;;;;;1.17;0.40;;;19.70;43.30;;;;;;6198421;28;20033;-65
2022/04/04 01:50:21;;;;;;;0.55;0.25;;;19.70;43.40;;;;;;6198651;28;20520;-65
2022/04/04 01:53:27;;;;;;;0.65;0.32;;;19.70;43.30;;;;;;6198017;28;20474;-65
2022/04/04 01:56:29;;;;;;;0.60;0.30;;;19.70;43.40;;;;;;6198381;28;20029;-65
2022/04/04 01:59:29;;;;;;;0.40;0.35;;;19.70;43.30;;;;;;6198228;28;20477;-65
2022/04/04 02:02:30;;;;;;;0.63;0.40;;;19.70;43.30;;;;;;6198372;28;20054;-65
2022/04/04 02:05:30;;;;;;;0.52;0.40;;;19.70;43.30;;;;;;6197969;28;20436;-65
2022/04/04 02:08:32;;;;;;;0.82;0.30;;;19.70;43.40;;;;;;6198382;28;20309;-65
2022/04/04 02:11:32;;;;;;;0.35;0.25;;;19.70;43.30;;;;;;6197888;28;20541;-65
2022/04/04 02:14:34;;;;;;;0.40;0.30;;;19.70;43.40;;;;;;6197431;28;20029;-65
2022/04/04 02:17:34;;;;;;;0.95;0.50;;;19.60;43.20;;;;;;6197354;28;20041;-65
2022/04/04 02:20:36;;;;;;;0.57;0.30;;;19.70;43.30;;;;;;6198241;28;20097;-65
2022/04/04 02:23:36;;;;;;;0.43;0.30;;;19.70;43.40;;;;;;6198262;28;20034;-65
2022/04/04 02:26:37;;;;;;;0.93;0.43;;;19.70;43.30;;;;;;6196374;28;20034;-65
2022/04/04 02:29:37;;;;;;;0.38;0.30;;;19.60;43.20;;;;;;6197038;28;20081;-65
2022/04/04 02:32:38;;;;;;;0.30;0.28;;;19.70;43.30;;;;;;6197303;28;20501;-65
2022/04/04 02:35:39;;;;;;;0.32;0.20;;;19.60;43.20;;;;;;6197247;28;20022;-65
2022/04/04 02:38:39;;;;;;;0.77;0.30;;;19.60;43.20;;;;;;6198077;28;20081;-65
2022/04/04 02:41:40;;;;;;;0.40;0.20;;;19.60;43.20;;;;;;6197691;28;20025;-65
2022/04/04 02:44:40;;;;;;;0.40;0.32;;;19.60;43.20;;;;;;6196986;28;20106;-65
2022/04/04 02:47:42;;;;;;;0.30;0.30;;;19.60;43.20;;;;;;6197204;28;20018;-65
2022/04/04 02:50:44;;;;;;;0.52;0.38;;;19.60;43.20;;;;;;6196859;28;20023;-65
2022/04/04 02:53:44;;;;;;;0.70;0.38;;;19.60;43.20;;;;;;6196550;28;20024;-65
2022/04/04 02:56:45;;;;;;;0.28;0.28;;;19.60;43.20;;;;;;6197630;28;20026;-65
2022/04/04 02:59:45;;;;;;;0.63;0.30;;;19.70;43.30;;;;;;6196549;28;20145;-65
2022/04/04 03:02:47;;;;;;;0.52;0.30;;;19.60;43.20;;;;;;6197143;28;20037;-65
2022/04/04 03:05:48;;;;;;;0.30;0.30;;;19.60;43.20;;;;;;6196768;28;20026;-65
2022/04/04 03:08:48;;;;;;;0.90;0.40;;;19.60;43.20;;;;;;6197033;28;20450;-64
2022/04/04 03:11:49;;;;;;;0.63;0.50;;;19.60;43.10;;;;;;6196575;28;20046;-65
2022/04/04 03:14:50;;;;;;;0.75;0.32;;;19.60;43.20;;;;;;6196459;28;20023;-65
2022/04/04 03:17:54;;;;;;;0.40;0.30;;;19.60;43.20;;;;;;6196426;28;20057;-65
2022/04/04 03:20:54;;;;;;;0.40;0.30;;;19.60;43.30;;;;;;6196371;28;20270;-65
2022/04/04 03:23:55;;;;;;;0.60;0.35;;;19.60;43.20;;;;;;6195928;28;20033;-65
2022/04/04 03:26:55;;;;;;;0.40;0.30;;;19.60;43.30;;;;;;6196619;28;20092;-65
2022/04/04 03:29:56;;;;;;;0.65;0.32;;;19.60;43.20;;;;;;6196116;28;20050;-65
2022/04/04 03:32:57;;;;;;;0.30;0.30;;;19.60;43.20;;;;;;6196370;28;20073;-65
2022/04/04 03:36:01;;;;;;;0.43;0.30;;;19.60;43.20;;;;;;6195687;28;20030;-64
2022/04/04 03:39:01;;;;;;;0.38;0.30;;;19.60;43.20;;;;;;6196230;28;20101;-65
2022/04/04 03:42:02;;;;;;;0.40;0.30;;;19.60;43.20;;;;;;6196379;28;20030;-65
2022/04/04 03:45:04;;;;;;;0.60;0.30;;;19.60;43.20;;;;;;6195679;28;20076;-65
2022/04/04 03:48:05;;;;;;;0.80;0.38;;;19.60;43.20;;;;;;6195926;28;20401;-65
2022/04/04 03:51:06;;;;;;;0.82;0.40;;;19.60;43.20;;;;;;6195637;28;20034;-65
2022/04/04 03:54:07;;;;;;;0.38;0.30;;;19.60;43.20;;;;;;6195290;28;20077;-64
2022/04/04 03:57:08;;;;;;;0.40;0.30;;;19.60;43.20;;;;;;6195730;28;20027;-65
2022/04/04 04:00:09;;;;;;;0.77;0.40;;;19.60;43.20;;;;;;6195350;28;20037;-65
2022/04/04 04:03:10;;;;;;;0.20;0.17;;;19.60;43.20;;;;;;6195013;28;20019;-65
2022/04/04 04:06:16;;;;;;;0.20;0.20;;;19.60;43.20;;;;;;6195510;28;20339;-65
2022/04/04 04:09:16;;;;;;;0.70;0.40;;;19.60;43.20;;;;;;6195090;28;20030;-65
2022/04/04 04:12:17;;;;;;;0.35;0.20;;;19.60;43.20;;;;;;6195452;28;20031;-65
2022/04/04 04:15:21;;;;;;;0.50;0.30;;;19.60;43.30;;;;;;6194998;28;20069;-64
2022/04/04 04:18:22;;;;;;;0.30;0.30;;;19.60;43.20;;;;;;6195449;28;20080;-64
2022/04/04 04:21:23;;;;;;;0.30;0.30;;;19.60;43.10;;;;;;6194850;28;20038;-65
2022/04/04 04:24:24;;;;;;;0.40;0.30;;;19.60;43.20;;;;;;6195108;28;20081;-65
2022/04/04 04:27:25;;;;;;;1.10;0.30;;;19.60;43.10;;;;;;6194672;28;20481;-64
2022/04/04 04:30:27;;;;;;;0.60;0.38;;;19.60;43.10;;;;;;6194769;28;20051;-65
2022/04/04 04:33:27;;;;;;;0.75;0.30;;;19.60;43.10;;;;;;6194664;28;20065;-65
2022/04/04 04:36:28;;;;;;;1.05;0.30;;;19.60;43.10;;;;;;6194638;28;20525;-65
2022/04/04 04:39:28;;;;;;;0.77;0.40;;;19.60;43.10;;;;;;6193833;28;20097;-65
2022/04/04 04:42:29;;;;;;;0.40;0.40;;;19.60;43.10;;;;;;6194807;28;20049;-65
2022/04/04 04:45:30;;;;;;;0.65;0.30;;;19.60;43.10;;;;;;6194292;28;20027;-65
2022/04/04 04:48:30;;;;;;;0.98;0.47;;;19.60;43.10;;;;;;6194554;28;20022;-65
2022/04/04 04:51:31;;;;;;;2.05;0.50;;;19.60;43.10;;;;;;6194507;28;20041;-65
2022/04/04 04:54:31;;;;;;;1.15;0.40;;;19.60;43.00;;;;;;6194365;28;20128;-65
2022/04/04 04:57:32;;;;;;;0.77;0.50;;;19.60;43.10;;;;;;6194321;28;20485;-65
2022/04/04 05:00:37;;;;;;;0.50;0.40;;;19.60;43.10;;;;;;6193541;28;20022;-65
2022/04/04 05:03:38;;;;;;;0.95;0.43;;;19.60;43.00;;;;;;6170967;28;20074;-65
2022/04/04 05:06:39;;;;;;;0.88;0.35;;;19.60;43.10;;;;;;6170377;28;20062;-65
2022/04/04 05:09:39;;;;;;;0.50;0.30;;;19.60;43.10;;;;;;6170726;28;20410;-65
2022/04/04 05:12:40;;;;;;;0.68;0.50;;;19.60;43.00;;;;;;6169402;28;20030;-65
2022/04/04 05:15:40;;;;;;;0.68;0.45;;;19.60;43.00;;;;;;6170123;28;20437;-65
2022/04/04 05:18:44;;;;;;;1.17;0.50;;;19.60;43.10;;;;;;6170464;28;20102;-65
2022/04/04 05:21:46;;;;;;;0.95;0.40;;;19.60;43.10;;;;;;6169453;28;20268;-65
2022/04/04 05:24:46;;;;;;;0.55;0.38;;;19.60;43.00;;;;;;6169586;28;20437;-65
2022/04/04 05:27:48;;;;;;;0.40;0.40;;;19.60;43.00;;;;;;6169735;28;20055;-65
2022/04/04 05:30:48;;;;;;;0.60;0.40;;;19.60;43.00;;;;;;6180491;28;20051;-65
2022/04/04 05:33:49;;;;;;;0.28;0.20;;;19.60;43.00;;;;;;6193453;28;20726;-65
2022/04/04 05:36:50;;;;;;;0.55;0.40;;;19.60;43.00;;;;;;6176330;28;20134;-65
2022/04/04 05:39:51;;;;;;;0.63;0.52;;;19.60;43.00;;;;;;6183556;28;20065;-65
2022/04/04 05:42:53;;;;;;;5.25;0.50;;;19.60;43.50;;;;;;6196515;28;20018;-65
2022/04/04 05:45:53;;;;;;;3.10;0.32;;;19.60;43.20;;;;;;6188054;28;20110;-65
2022/04/04 05:48:54;;;;;;;4.82;0.60;;;19.60;43.10;;;;;;6213489;28;20041;-65
2022/04/04 05:51:54;;;;;;;1.83;0.52;;;19.70;42.90;;;;;;6194884;28;20046;-65
2022/04/04 05:54:57;;;;;;;2.10;0.50;;;19.70;42.90;;;;;;6202590;28;20034;-65
2022/04/04 05:57:57;;;;;;;0.65;0.40;;;19.70;43.00;;;;;;6192342;28;20085;-65
2022/04/04 06:00:58;;;;;;;1.52;0.45;;;19.70;43.00;;;;;;6180158;28;20034;-65
2022/04/04 06:03:58;;;;;;;1.33;0.50;;;19.70;43.00;;;;;;6195119;28;20042;-65
2022/04/04 06:06:59;;;;;;;4.43;0.73;;;19.70;43.10;;;;;;6194792;28;20034;-65
2022/04/04 06:09:59;;;;;;;3.50;1.83;;;19.70;43.20;;;;;;6195182;28;20093;-65
2022/04/04 06:13:00;;;;;;;8.35;3.53;;;19.70;43.20;;;;;;6194851;28;20536;-65
2022/04/04 06:16:00;;;;;;;7.05;3.33;;;19.60;43.10;;;;;;6194676;28;20140;-65
2022/04/04 06:19:01;;;;;;;10.75;3.50;;;19.60;43.00;;;;;;6195130;28;20499;-65
2022/04/04 06:22:03;;;;;;;7.50;3.22;;;19.60;42.90;;;;;;6194837;28;20034;-65
2022/04/04 06:25:05;;;;;;;7.57;3.13;;;19.70;42.90;;;;;;6196429;28;20018;-65
2022/04/04 06:28:06;;;;;;;6.22;2.60;;;19.70;42.90;;;;;;6198934;28;20081;-65
2022/04/04 06:31:06;;;;;;;5.45;2.38;;;19.60;42.80;;;;;;6198083;28;20048;-65
2022/04/04 06:34:10;;;;;;;4.55;2.05;;;19.70;42.90;;;;;;6199178;28;20045;-65
2022/04/04 06:37:10;;;;;;;5.32;2.03;;;19.70;42.90;;;;;;6190060;28;20056;-65
2022/04/04 06:40:12;;;;;;;6.63;2.00;;;19.70;42.90;;;;;;6223179;28;20026;-65
2022/04/04 06:43:13;;;;;;;6.22;1.85;;;19.70;42.90;;;;;;6210012;28;20070;-65
2022/04/04 06:46:13;;;;;;;4.80;2.00;;;19.70;42.90;;;;;;6198502;28;20108;-65
2022/04/04 06:49:14;;;;;;;2.83;1.60;;;19.70;43.50;;;;;;6198738;28;20026;-65
2022/04/04 06:52:14;;;;;;;3.10;1.17;;;19.70;43.30;;;;;;6199190;28;20449;-65
2022/04/04 06:55:15;;;;;;;3.15;1.50;;;19.70;42.70;;;;;;6198120;28;20056;-65
2022/04/04 06:58:16;;;;;;;8.43;1.58;;;19.70;42.80;;;;;;6198455;28;20117;-65
2022/04/04 07:01:16;;;;;;;4.00;1.80;;;19.70;42.80;;;;;;6196929;28;20042;-65
2022/04/04 07:04:17;;;;;;;2.70;1.50;;;19.70;42.90;;;;;;6198606;28;20038;-65
2022/04/04 07:07:20;;;;;;;2.78;1.25;;;19.70;43.50;;;;;;6198105;28;20226;-65
2022/04/04 07:10:21;;;;;;;2.80;1.35;;;19.70;42.80;;;;;;6182086;28;20030;-64
2022/04/04 07:13:22;;;;;;;1.48;1.00;;;19.70;42.80;;;;;;6198385;28;20042;-64
2022/04/04 07:16:24;;;;;;;3.92;1.35;;;19.70;42.80;;;;;;6198072;28;20038;-65
2022/04/04 07:19:30;;;;;;;2.42;1.42;;;19.70;42.80;;;;;;6198523;28;20042;-65
2022/04/04 07:22:38;;;;;;;;;;;19.70;42.80;;;;;;6197886;28;20437;-65
2022/04/04 07:25:38;;;;;;;2.70;1.42;;;19.70;42.90;;;;;;6177296;28;19919;-65
2022/04/04 07:28:42;;;;;;;5.50;1.20;;;19.70;42.80;;;;;;6184435;28;20418;-65
2022/04/04 07:31:43;;;;;;;2.22;1.17;;;19.70;42.80;;;;;;6204719;28;20040;-65
2022/04/04 07:34:44;;;;;;;3.33;1.40;;;19.70;43.10;;;;;;6202199;28;20058;-65
2022/04/04 07:37:46;;;;;;;4.43;1.17;;;19.70;42.70;;;;;;6196508;28;20045;-65
2022/04/04 07:40:47;;;;;;;1.80;1.17;;;19.80;42.50;;;;;;6196693;28;20228;-65
2022/04/04 07:43:48;;;;;;;2.20;1.30;;;19.80;42.30;;;;;;6196810;28;20019;-65
2022/04/04 07:46:48;;;;;;;1.35;0.90;;;19.80;42.20;;;;;;6197133;28;20100;-65
2022/04/04 07:49:49;;;;;;;2.53;0.90;;;19.90;42.30;;;;;;6196299;28;20109;-65
2022/04/04 07:52:50;;;;;;;1.85;1.40;;;19.90;42.30;;;;;;6197174;28;20056;-64
2022/04/04 07:55:51;;;;;;;1.45;1.00;;;19.90;42.30;;;;;;6196828;28;20096;-65
2022/04/04 07:58:51;;;;;;;2.78;1.30;;;19.90;42.30;;;;;;6196992;28;20030;-65
2022/04/04 08:01:52;;;;;;;2.50;1.10;;;19.90;42.80;;;;;;6196933;28;20018;-65
2022/04/04 08:04:52;;;;;;;1.75;1.00;;;19.90;43.40;;;;;;6197159;28;20030;-65
2022/04/04 08:07:53;;;;;;;3.28;1.10;;;19.90;42.50;;;;;;6196346;28;20030;-65
2022/04/04 08:10:53;;;;;;;3.20;1.08;;;19.90;42.50;;;;;;6196703;28;20098;-65
2022/04/04 08:13:54;;;;;;;5.32;1.20;;;19.90;42.50;;;;;;6196925;28;20584;-65
2022/04/04 08:16:55;;;;;;;3.33;1.40;;;19.90;42.60;;;;;;6196748;28;20033;-65
2022/04/04 08:19:55;;;;;;;2.85;1.25;;;19.90;42.60;;;;;;6196509;28;20032;-65
2022/04/04 08:22:56;;;;;;;4.57;1.08;;;19.90;42.70;;;;;;6200049;28;20037;-65
2022/04/04 08:25:57;;;;;;;4.78;1.00;;;19.90;42.70;;;;;;6195698;28;20026;-65
2022/04/04 08:28:57;;;;;;;1.92;1.25;;;19.80;42.90;;;;;;6195315;28;20062;-65
2022/04/04 08:31:58;;;;;;;4.97;1.35;;;19.80;42.10;;;;;;6195882;28;20096;-66
2022/04/04 08:35:00;;;;;;;2.80;1.30;;;19.80;41.60;;;;;;6195524;28;20133;-65
2022/04/04 08:38:01;;;;;;;3.45;1.17;;;19.80;41.10;;;;;;6196104;28;20096;-65
2022/04/04 08:41:05;;;;;;;4.88;1.20;;;19.80;41.50;;;;;;6199941;28;20111;-65
2022/04/04 08:44:07;;;;;;;2.90;1.00;;;19.80;41.70;;;;;;6206748;28;20029;-66
2022/04/04 08:47:08;;;;;;;3.13;1.08;;;19.70;41.50;;;;;;6195750;28;20025;-65
2022/04/04 08:50:11;;;;;;;1.77;1.02;;;19.70;41.70;;;;;;6195734;28;20026;-65
2022/04/04 08:53:11;;;;;;;1.35;0.80;;;19.70;41.60;;;;;;6195390;28;20030;-65
2022/04/04 08:56:12;;;;;;;1.83;0.93;;;19.70;41.80;;;;;;6195475;28;20037;-65
2022/04/04 08:59:13;;;;;;;2.38;1.13;;;19.70;41.90;;;;;;6196047;28;20145;-65
2022/04/04 09:02:15;;;;;;;2.53;0.93;;;19.70;41.90;;;;;;6196489;28;20026;-66
2022/04/04 09:05:16;;;;;;;2.13;0.80;;;19.70;41.90;;;;;;6196189;28;20045;-65
2022/04/04 09:08:18;;;;;;;0.90;0.70;;;19.70;41.90;;;;;;6195245;28;20018;-65
2022/04/04 09:11:19;;;;;;;2.25;1.27;;;19.80;42.00;;;;;;6195376;28;20038;-65
2022/04/04 09:14:21;;;;;;;1.02;0.90;;;19.70;41.90;;;;;;6195811;28;20512;-65
2022/04/04 09:17:28;;;;;;;4.55;1.17;;;19.70;41.90;;;;;;6195613;28;20477;-65
2022/04/04 09:20:29;;;;;;;3.40;1.20;;;19.70;41.90;;;;;;6172605;28;20370;-65
2022/04/04 09:23:56;;;;;;;1.98;0.70;;;19.70;41.70;;;;;;6195209;28;20065;-65
2022/04/04 09:26:57;;;;;;;3.13;0.90;;;19.70;41.90;;;;;;6195473;28;20089;-66
2022/04/04 09:29:59;;;;;;;1.65;0.90;;;19.80;42.40;;;;;;6194740;28;20066;-65
2022/04/04 09:33:00;;;;;;;4.13;1.13;;;19.90;42.10;;;;;;6194576;28;20038;-65
2022/04/04 09:36:00;;;;;;;2.67;1.02;;;19.90;42.10;;;;;;6194609;28;20397;-65
2022/04/04 09:39:08;;;;;;;1.98;0.93;;;19.90;41.90;;;;;;6195734;28;20023;-65
2022/04/04 09:42:17;;;;;;;7.82;1.05;;;19.90;41.70;;;;;;6208087;28;20543;-65
2022/04/04 09:45:26;;;;;;;1.52;0.90;;;19.90;41.60;;;;;;6196115;28;20045;-65
2022/04/04 09:48:27;;;;;;;2.97;0.98;;;19.90;41.90;;;;;;6194588;28;20113;-65
2022/04/04 09:51:42;;;;;;;2.35;0.90;;;19.90;41.70;;;;;;6195256;28;20312;-65
2022/04/04 09:54:43;;;;;;;4.82;1.38;;;19.90;41.80;;;;;;6195270;28;20027;-65
2022/04/04 09:57:50;;;;;;;5.32;1.00;;;19.90;41.80;;;;;;6194292;28;20193;-65
2022/04/04 10:00:51;;;;;;;1.33;0.90;;;19.90;41.90;;;;;;6197048;28;20026;-65
2022/04/04 10:03:53;;;;;;;2.67;0.80;;;19.90;41.90;;;;;;6201507;28;20509;-65
2022/04/04 10:06:54;;;;;;;5.45;0.93;;;19.90;41.80;;;;;;6199526;28;20038;-65
2022/04/04 10:09:54;;;;;;;1.17;0.80;;;19.90;42.10;;;;;;6199071;28;20026;-65
2022/04/04 10:12:56;;;;;;;4.55;1.10;;;19.90;42.30;;;;;;6198687;28;20116;-65
2022/04/04 10:15:57;;;;;;;1.77;0.90;;;19.90;42.30;;;;;;6198747;28;20057;-65
2022/04/04 10:18:58;;;;;;;3.25;0.80;;;19.90;42.40;;;;;;6198251;28;20381;-65
2022/04/04 10:21:59;;;;;;;1.75;0.95;;;19.80;42.40;;;;;;6198293;28;20084;-65
2022/04/04 10:25:02;;;;;;;3.85;1.13;;;19.80;42.30;;;;;;6198308;28;20022;-65
2022/04/04 10:28:03;;;;;;;3.58;0.90;;;19.80;42.40;;;;;;6198397;28;20056;-64
2022/04/04 10:31:12;;;;;;;2.65;0.88;;;19.80;42.30;;;;;;6198001;28;20042;-65
2022/04/04 10:34:18;;;;;;;2.72;0.90;;;19.80;42.70;;;;;;6198083;28;20038;-65
2022/04/04 10:37:21;;;;;;;6.00;1.00;;;19.90;42.80;;;;;;6199159;28;20041;-65
2022/04/04 10:40:27;;;;;;;5.90;1.30;;;19.80;42.70;;;;;;6199524;28;20028;-65
2022/04/04 10:43:35;;;;;;;12.80;1.40;;;19.80;42.10;;;;;;6214293;28;20081;-65
2022/04/04 10:46:35;;;;;;;7.97;1.27;;;19.80;42.20;;;;;;6198811;28;20058;-66
2022/04/04 10:49:36;;;;;;;2.78;1.27;;;19.80;41.90;;;;;;6197736;28;20030;-65
2022/04/04 10:52:39;;;;;;;4.50;1.00;;;19.80;41.90;;;;;;6198527;28;20042;-65
2022/04/04 10:55:47;;;;;;;5.07;1.08;;;19.80;41.60;;;;;;6198111;28;20450;-65
2022/04/04 10:59:13;;;;;;;6.88;1.25;;;19.70;41.20;;;;;;6174745;28;20023;-65
2022/04/04 11:02:15;;;;;;;8.47;1.43;;;19.70;41.10;;;;;;6174245;28;20033;-65
2022/04/04 11:09:03;;;;;;;4.30;0.95;;;19.70;41.30;;;;;;6162491;28;20299;-65
2022/04/04 11:12:12;;;;;;;5.40;0.90;;;19.70;41.30;;;;;;6173725;28;20043;-65
2022/04/04 11:15:13;;;;;;;6.75;1.23;;;19.70;41.40;;;;;;6174499;28;20034;-65
2022/04/04 11:18:14;;;;;;;6.00;1.40;;;19.70;41.30;;;;;;6173725;28;20023;-65
2022/04/04 11:21:41;;;;;;;1.80;1.10;;;19.70;41.40;;;;;;6173761;28;20035;-65
2022/04/04 11:24:43;;;;;;;2.00;1.27;;;19.70;41.40;;;;;;6176338;28;20030;-65
2022/04/04 11:27:48;;;;;;;4.88;1.55;;;19.70;41.40;;;;;;6197495;28;20051;-65
2022/04/04 11:31:03;;;;;;;3.30;1.48;;;19.70;41.30;;;;;;6197432;28;20071;-65
2022/04/04 11:34:12;;;;;;;4.57;1.30;;;19.70;41.40;;;;;;6198012;28;20062;-65
2022/04/04 11:37:17;;;;;;;8.68;1.80;;;19.80;41.50;;;;;;6197366;28;20031;-65
2022/04/04 11:40:23;;;;;;;3.35;1.70;;;19.70;41.50;;;;;;6197701;28;20489;-65
2022/04/04 11:43:25;;;;;;;5.45;2.13;;;19.70;41.30;;;;;;6212597;28;20073;-65
2022/04/04 11:46:26;;;;;;;5.97;1.88;;;19.70;41.40;;;;;;6197668;28;20030;-65
2022/04/04 11:49:36;;;;;;;6.35;1.70;;;19.70;41.40;;;;;;6197445;28;20069;-65
2022/04/04 11:53:09;;;;;;;5.53;1.70;;;19.70;41.40;;;;;;6197267;28;20122;-65
2022/04/04 11:56:20;;;;;;;4.30;2.10;;;19.70;41.40;;;;;;6196518;28;20149;-65
2022/04/04 11:59:21;;;;;;;6.35;2.33;;;19.70;41.40;;;;;;6197344;28;20473;-65
2022/04/04 12:02:25;;;;;;;8.02;2.78;;;19.70;41.60;;;;;;6197175;28;20026;-65
2022/04/04 12:05:27;;;;;;;9.20;3.40;;;19.70;41.40;;;;;;6197182;28;20081;-65
2022/04/04 12:08:27;;;;;;;12.70;4.70;;;19.70;41.50;;;;;;6196901;28;20030;-65
2022/04/04 12:11:28;;;;;;;12.25;4.70;;;19.70;41.50;;;;;;6197100;28;20030;-65
2022/04/04 12:14:40;;;;;;;19.95;6.07;;;19.70;41.50;;;;;;6196788;28;20026;-65
2022/04/04 12:17:48;;;;;;;17.65;6.38;;;19.70;41.60;;;;;;6196768;28;20089;-65
2022/04/04 12:20:52;;;;;;;22.20;7.57;;;19.70;41.60;;;;;;6197003;28;20105;-65
2022/04/04 12:27:14;;;;;;;24.92;8.98;;;19.70;41.60;;;;;;6196098;28;20034;-65
2022/04/04 12:30:14;;;;;;;25.05;9.50;;;19.70;41.60;;;;;;6195533;28;20072;-65
2022/04/04 12:33:15;;;;;;;24.55;10.60;;;19.70;41.60;;;;;;6196611;28;20061;-65
2022/04/04 12:36:38;;;;;;;31.88;12.25;;;19.70;41.60;;;;;;6195879;28;20517;-65
2022/04/04 12:39:38;;;;;;;29.92;11.70;;;19.70;41.60;;;;;;6195251;28;20033;-65
2022/04/04 12:42:40;;;;;;;32.40;12.18;;;19.70;41.70;;;;;;6211340;28;20033;-65
2022/04/04 12:45:46;;;;;;;35.95;13.20;;;19.70;42.40;;;;;;6196104;28;20031;-65
2022/04/04 12:48:46;;;;;;;30.63;12.68;;;19.70;41.70;;;;;;6196189;28;20034;-65
2022/04/04 12:52:08;;;;;;;34.30;13.02;;;19.70;41.70;;;;;;6196358;28;20093;-65
2022/04/04 12:55:12;;;;;;;33.38;12.90;;;19.70;42.50;;;;;;6195907;28;20034;-65
2022/04/04 12:58:23;;;;;;;34.17;12.95;;;19.70;41.80;;;;;;6196342;28;20106;-65
2022/04/04 13:01:24;;;;;;;31.00;12.70;;;19.70;41.90;;;;;;6196232;28;20022;-65
2022/04/04 13:04:24;;;;;;;32.83;12.18;;;19.70;41.80;;;;;;6195921;28;20144;-65
2022/04/04 13:07:25;;;;;;;30.33;11.70;;;19.70;41.90;;;;;;6195727;28;20030;-65
2022/04/04 13:10:28;;;;;;;34.20;12.88;;;19.70;41.90;;;;;;6196061;28;20074;-66
2022/04/04 13:13:29;;;;;;;30.10;11.48;;;19.70;42.10;;;;;;6195800;28;20394;-66
2022/04/04 13:16:34;;;;;;;23.85;9.48;;;19.60;41.70;;;;;;6195228;28;20421;-66
2022/04/04 13:19:35;;;;;;;;;;;19.60;41.20;;;;;;6196552;28;20034;-65
2022/04/04 13:22:36;;;;;;;22.58;7.95;;;19.60;41.20;;;;;;6195395;28;19944;-65
2022/04/04 13:25:37;;;;;;;19.95;8.02;;;19.60;41.70;;;;;;6195307;28;20431;-65
2022/04/04 13:28:37;;;;;;;18.95;7.40;;;19.60;41.00;;;;;;6195156;28;20513;-65
2022/04/04 13:31:40;;;;;;;18.27;7.68;;;19.50;41.20;;;;;;6194785;28;20053;-65
2022/04/04 13:34:41;;;;;;;13.43;5.88;;;19.50;41.20;;;;;;6200296;28;20053;-65
2022/04/04 13:37:42;;;;;;;13.07;5.35;;;19.50;41.60;;;;;;6193255;28;20114;-66
2022/04/04 13:40:43;;;;;;;19.33;5.72;;;19.50;41.40;;;;;;6186321;28;20323;-66
2022/04/04 13:43:43;;;;;;;14.27;5.20;;;19.50;41.20;;;;;;6208375;28;20492;-65
2022/04/04 13:46:44;;;;;;;9.02;4.25;;;19.50;41.20;;;;;;6201583;28;20026;-65
2022/04/04 13:49:44;;;;;;;9.10;4.72;;;19.50;41.00;;;;;;6202143;28;20109;-65
2022/04/04 13:52:45;;;;;;;9.48;4.40;;;19.50;41.00;;;;;;6202613;28;20042;-65
2022/04/04 13:55:46;;;;;;;11.05;4.43;;;19.50;40.90;;;;;;6202322;28;20034;-65
2022/04/04 13:58:46;;;;;;;7.80;3.60;;;19.40;40.70;;;;;;6202294;28;20030;-65
2022/04/04 14:01:47;;;;;;;11.85;3.60;;;19.40;40.90;;;;;;6202425;28;20027;-65
2022/04/04 14:04:47;;;;;;;7.47;3.30;;;19.40;40.70;;;;;;6213623;28;20033;-65
2022/04/04 14:07:49;;;;;;;8.38;3.05;;;19.40;40.60;;;;;;6207236;28;20041;-65
2022/04/04 14:10:50;;;;;;;6.13;2.90;;;19.40;40.50;;;;;;6202128;28;20035;-65
2022/04/04 14:13:50;;;;;;;5.18;2.67;;;19.40;40.50;;;;;;6202165;28;20120;-65
2022/04/04 14:16:52;;;;;;;8.43;3.17;;;19.40;40.70;;;;;;6202156;28;20477;-65
2022/04/04 14:19:53;;;;;;;9.82;2.90;;;19.40;40.60;;;;;;6202787;28;20085;-65
2022/04/04 14:22:53;;;;;;;7.22;2.80;;;19.40;40.60;;;;;;6202044;28;20474;-65
2022/04/04 14:25:54;;;;;;;11.65;3.28;;;19.40;40.60;;;;;;6202094;28;20141;-65
2022/04/04 14:28:57;;;;;;;5.38;2.38;;;19.40;40.80;;;;;;6202145;28;20062;-65
2022/04/04 14:31:58;;;;;;;5.82;2.08;;;19.40;40.50;;;;;;6201383;28;20034;-65
2022/04/04 14:34:58;;;;;;;5.22;2.58;;;19.40;40.30;;;;;;6202355;28;20559;-65
2022/04/04 14:37:59;;;;;;;5.28;2.45;;;19.40;39.80;;;;;;6199732;28;20027;-65
2022/04/04 14:41:00;;;;;;;10.82;2.42;;;19.40;39.70;;;;;;6201699;28;20085;-65
2022/04/04 14:44:01;;;;;;;4.38;1.70;;;19.40;39.60;;;;;;6201953;28;20019;-65
2022/04/04 14:47:02;;;;;;;4.15;1.80;;;19.50;39.70;;;;;;6197071;28;20037;-65
2022/04/04 14:50:07;;;;;;;5.28;2.00;;;19.40;39.50;;;;;;6197549;28;20069;-65
2022/04/04 14:53:08;;;;;;;6.32;2.28;;;19.50;39.80;;;;;;6183691;28;20100;-65
2022/04/04 14:56:11;;;;;;;4.22;1.85;;;19.50;40.00;;;;;;6197485;28;20042;-65
2022/04/04 14:59:11;;;;;;;5.05;2.63;;;19.50;40.00;;;;;;6196304;28;20022;-65
2022/04/04 15:02:12;;;;;;;3.58;1.85;;;19.50;40.00;;;;;;6197515;28;20030;-65
2022/04/04 15:05:13;;;;;;;4.47;2.00;;;19.50;40.10;;;;;;6197821;28;20030;-65
2022/04/04 15:08:14;;;;;;;4.55;1.92;;;19.50;40.20;;;;;;6195873;28;20026;-65
2022/04/04 15:11:14;;;;;;;4.05;1.90;;;19.50;40.30;;;;;;6196627;28;20076;-65
2022/04/04 15:14:15;;;;;;;5.68;1.80;;;19.50;40.70;;;;;;6197540;28;20109;-65
2022/04/04 15:17:15;;;;;;;4.47;1.88;;;19.40;40.80;;;;;;6196997;28;20038;-65
2022/04/04 15:20:16;;;;;;;6.30;2.28;;;19.40;40.80;;;;;;6202451;28;20057;-65
2022/04/04 15:23:16;;;;;;;4.82;2.33;;;19.40;40.70;;;;;;6203822;28;20022;-65
2022/04/04 15:26:18;;;;;;;4.07;2.33;;;19.40;40.50;;;;;;6192937;28;20088;-65
2022/04/04 15:29:19;;;;;;;5.30;2.10;;;19.40;40.50;;;;;;6197119;28;20405;-65
2022/04/04 15:32:19;;;;;;;4.47;2.40;;;19.40;40.60;;;;;;6195746;28;20046;-65
2022/04/04 15:35:20;;;;;;;4.15;2.40;;;19.40;40.20;;;;;;6197183;28;20035;-65
2022/04/04 15:38:21;;;;;;;4.15;2.15;;;19.40;40.70;;;;;;6196598;28;20032;-65
2022/04/04 15:41:27;;;;;;;4.68;2.28;;;19.40;40.50;;;;;;6196172;28;20029;-65
2022/04/04 15:44:29;;;;;;;6.07;1.98;;;19.30;40.40;;;;;;6196770;28;20049;-65
2022/04/04 15:47:29;;;;;;;3.33;1.65;;;19.40;40.20;;;;;;6196459;28;20026;-66
2022/04/04 15:50:30;;;;;;;3.55;2.03;;;19.40;40.60;;;;;;6196621;28;20030;-66
2022/04/04 15:53:31;;;;;;;7.20;1.98;;;19.40;40.30;;;;;;6196727;28;20052;-65